Terminal Aerodrome Forecast
Issued by NWS Brownsville, TX

Home | Current Version | Previous Version | Text Only | Print | Product List | Glossary On
Versions: 1 2 3 4 5 6 7 8 9 10 11 12 13 14 15
000
FTUS44 KBRO 181742 CCA
TAFMFE
TAF COR
KMFE 181742Z 1818/1918 18011G19KT P6SM SCT040
     FM190000 03014G22KT P6SM BKN050
     FM190600 01016G24KT P6SM SCT250=

USA.gov is the U.S. government's official web portal to all federal, state and local government web resources and services.